Time;durP1;ratioP1;P1;durP2;ratioP2;P2;SDS_P1;SDS_P2;PMS_P1;PMS_P2;Temp;Humidity;BMP_temperature;BMP_pressure;BME280_temperature;BME280_humidity;BME280_pressure;Samples;Min_cycle;Max_cycle;Signal;HPM_P1;HPM_P2
2022/12/02 00:02:05;;;;;;;46.10;17.05;;;5.30;86.50;;;;;;9183152;19;20013;-66
2022/12/02 00:05:30;;;;;;;50.75;17.58;;;5.30;86.50;;;;;;9181878;19;20348;-66
2022/12/02 00:08:36;;;;;;;49.63;18.45;;;5.30;86.50;;;;;;9182361;19;20014;-66
2022/12/02 00:11:41;;;;;;;46.72;17.13;;;5.30;86.40;;;;;;9180775;19;20015;-67
2022/12/02 00:14:45;;;;;;;44.53;15.95;;;5.30;86.40;;;;;;9182877;19;20014;-66
2022/12/02 00:17:51;;;;;;;47.92;17.08;;;5.40;86.40;;;;;;9182718;19;20021;-66
2022/12/02 00:20:55;;;;;;;46.83;18.88;;;5.40;86.40;;;;;;9175369;19;20025;-67
2022/12/02 00:23:58;;;;;;;;;;;5.40;86.30;;;;;;9182087;19;20480;-68
2022/12/02 00:27:02;;;;;;;47.25;17.40;;;5.40;86.30;;;;;;9182701;19;19910;-66
2022/12/02 00:30:07;;;;;;;50.10;17.38;;;5.40;86.30;;;;;;9183738;19;20824;-68
2022/12/02 00:33:14;;;;;;;52.03;18.48;;;5.40;86.30;;;;;;9180932;19;20018;-66
2022/12/02 00:36:19;;;;;;;52.58;17.65;;;5.40;86.20;;;;;;9181918;19;20380;-67
2022/12/02 00:39:23;;;;;;;42.92;16.80;;;5.40;86.30;;;;;;9182414;19;20034;-66
2022/12/02 00:42:27;;;;;;;;;;;5.40;86.20;;;;;;9183657;19;20010;-66
2022/12/02 00:48:51;;;;;;;48.90;16.73;;;5.30;86.30;;;;;;9178930;19;20014;-68
2022/12/02 00:51:55;;;;;;;51.42;16.73;;;5.30;86.20;;;;;;9181305;19;20010;-68
2022/12/02 00:54:59;;;;;;;45.70;16.95;;;5.30;86.20;;;;;;9180352;19;20025;-68
2022/12/02 00:58:03;;;;;;;;;;;5.30;86.20;;;;;;9181902;19;20015;-66
2022/12/02 01:01:07;;;;;;;45.37;16.70;;;5.30;86.30;;;;;;9177598;19;20388;-66
2022/12/02 01:04:16;;;;;;;38.25;14.23;;;5.30;86.30;;;;;;9179884;19;20033;-66
2022/12/02 01:07:20;;;;;;;40.78;15.52;;;5.30;86.20;;;;;;9182016;19;20708;-66
2022/12/02 01:10:23;;;;;;;39.10;14.55;;;5.30;86.20;;;;;;9181673;19;20015;-67
2022/12/02 01:13:28;;;;;;;31.30;13.43;;;5.30;86.20;;;;;;9179087;19;20010;-67
2022/12/02 01:16:32;;;;;;;44.65;15.20;;;5.30;86.20;;;;;;9180266;19;20022;-67
2022/12/02 01:19:38;;;;;;;;;;;5.20;86.10;;;;;;9176921;19;20007;-66
2022/12/02 01:22:41;;;;;;;43.03;13.88;;;5.20;86.20;;;;;;9177869;19;19978;-68
2022/12/02 01:25:47;;;;;;;33.47;13.20;;;5.30;86.20;;;;;;9180048;19;20243;-66
2022/12/02 01:28:50;;;;;;;46.35;15.15;;;5.30;86.30;;;;;;9179909;19;20015;-66
2022/12/02 01:31:54;;;;;;;36.75;14.50;;;5.20;86.10;;;;;;9179707;19;20352;-68
2022/12/02 01:35:00;;;;;;;42.88;13.98;;;5.20;86.20;;;;;;9181124;19;20027;-67
2022/12/02 01:38:04;;;;;;;38.03;14.00;;;5.30;86.20;;;;;;9181513;19;20015;-66
2022/12/02 01:41:08;;;;;;;;;;;5.20;86.10;;;;;;9180272;19;20010;-66
2022/12/02 01:44:12;;;;;;;34.95;14.57;;;5.20;86.00;;;;;;9179376;19;19949;-67
2022/12/02 01:47:15;;;;;;;;;;;5.20;86.10;;;;;;9181875;19;20101;-66
2022/12/02 01:50:22;;;;;;;37.92;14.80;;;5.20;86.10;;;;;;9180534;19;19929;-66
2022/12/02 01:53:27;;;;;;;40.40;15.15;;;5.20;86.10;;;;;;9174441;19;20035;-68
2022/12/02 01:56:31;;;;;;;36.70;15.40;;;5.20;86.10;;;;;;9179426;19;20506;-69
2022/12/02 01:59:34;;;;;;;;;;;5.20;86.10;;;;;;9178589;19;20464;-67
2022/12/02 02:02:40;;;;;;;34.17;14.85;;;5.10;86.00;;;;;;9179691;19;20303;-67
2022/12/02 02:05:47;;;;;;;38.63;14.23;;;5.10;86.00;;;;;;9178464;19;20093;-67
2022/12/02 02:08:51;;;;;;;41.28;16.00;;;5.10;86.10;;;;;;9179700;19;20021;-66
2022/12/02 02:11:56;;;;;;;34.35;13.43;;;5.10;86.10;;;;;;9177616;19;20022;-66
2022/12/02 02:14:59;;;;;;;43.42;15.20;;;5.10;86.10;;;;;;9179470;19;20018;-69
2022/12/02 02:18:03;;;;;;;;;;;5.10;86.10;;;;;;9178217;19;20823;-69
2022/12/02 02:21:17;;;;;;;34.65;13.18;;;5.10;86.10;;;;;;9175505;19;19954;-67
2022/12/02 02:24:23;;;;;;;33.00;13.93;;;5.10;86.10;;;;;;9179164;19;20090;-67
2022/12/02 02:27:27;;;;;;;31.90;14.63;;;5.10;86.00;;;;;;9178335;19;20023;-68
2022/12/02 02:30:33;;;;;;;36.20;14.00;;;5.10;86.00;;;;;;9177834;19;20152;-67
2022/12/02 02:33:39;;;;;;;39.10;16.02;;;5.10;86.00;;;;;;9176101;19;20092;-67
2022/12/02 02:36:43;;;;;;;38.17;14.75;;;5.10;86.00;;;;;;9176955;19;20022;-68
2022/12/02 02:39:48;;;;;;;;;;;5.10;86.00;;;;;;9177297;19;20018;-66
2022/12/02 02:42:54;;;;;;;41.50;16.35;;;5.10;86.10;;;;;;9177362;19;19921;-66
2022/12/02 02:46:00;;;;;;;51.42;17.83;;;5.10;86.00;;;;;;9176305;19;20043;-68
2022/12/02 02:49:10;;;;;;;44.80;17.13;;;5.10;86.00;;;;;;9176289;19;20030;-66
2022/12/02 02:52:13;;;;;;;;;;;5.10;86.10;;;;;;9177080;19;20037;-67
2022/12/02 02:55:23;;;;;;;46.53;17.50;;;5.10;86.00;;;;;;9176937;19;19939;-67
2022/12/02 02:58:28;;;;;;;49.35;19.38;;;5.00;85.90;;;;;;9176395;19;20010;-68
2022/12/02 03:01:36;;;;;;;48.30;18.60;;;5.00;85.90;;;;;;9175502;19;20014;-67
2022/12/02 03:04:42;;;;;;;50.67;19.50;;;5.00;86.00;;;;;;9176211;19;20011;-66
2022/12/02 03:07:48;;;;;;;53.15;20.85;;;5.00;86.00;;;;;;9175945;19;20420;-66
2022/12/02 03:10:56;;;;;;;54.33;19.65;;;5.00;86.60;;;;;;9176978;19;20019;-67
2022/12/02 03:14:02;;;;;;;53.58;20.77;;;5.00;86.00;;;;;;9176255;19;20018;-67
2022/12/02 03:17:06;;;;;;;49.10;19.70;;;5.00;86.00;;;;;;9175103;19;20372;-67
2022/12/02 03:20:11;;;;;;;54.35;21.17;;;4.90;86.00;;;;;;9171107;19;20025;-67
2022/12/02 03:23:16;;;;;;;53.20;20.00;;;4.90;86.00;;;;;;9174982;19;20027;-66
2022/12/02 03:26:22;;;;;;;48.60;18.65;;;4.90;86.00;;;;;;9174618;19;20011;-66
2022/12/02 03:29:26;;;;;;;49.15;19.02;;;5.00;86.00;;;;;;9175687;19;20022;-66
2022/12/02 03:32:29;;;;;;;;;;;4.90;85.90;;;;;;9177654;19;20022;-67
2022/12/02 03:35:33;;;;;;;42.83;17.70;;;4.90;86.60;;;;;;9176589;19;19923;-67
2022/12/02 03:38:38;;;;;;;51.38;18.48;;;4.90;86.00;;;;;;9174075;19;20027;-68
2022/12/02 03:41:44;;;;;;;49.90;19.05;;;4.80;86.00;;;;;;9172982;19;20043;-67
2022/12/02 03:44:47;;;;;;;46.53;18.13;;;4.80;86.00;;;;;;9175823;19;20178;-70
2022/12/02 03:47:52;;;;;;;47.45;18.05;;;4.80;86.10;;;;;;9180576;19;20014;-68
2022/12/02 03:50:57;;;;;;;48.65;17.48;;;4.80;86.10;;;;;;9180310;19;20018;-67
2022/12/02 03:54:01;;;;;;;42.45;18.25;;;4.80;86.20;;;;;;9183963;19;20014;-66
2022/12/02 03:57:08;;;;;;;48.70;17.48;;;4.80;86.20;;;;;;9184218;19;20470;-67
2022/12/02 04:00:14;;;;;;;46.75;17.77;;;4.70;86.20;;;;;;9181976;19;20011;-67
2022/12/02 04:03:19;;;;;;;40.60;16.67;;;4.70;86.20;;;;;;9183339;19;20014;-67
2022/12/02 04:06:23;;;;;;;43.35;17.35;;;4.80;86.20;;;;;;9182393;19;20024;-66
2022/12/02 04:09:27;;;;;;;;;;;4.70;86.20;;;;;;9184349;19;20024;-66
2022/12/02 04:12:32;;;;;;;53.55;16.63;;;4.70;86.30;;;;;;9183243;19;19918;-67
2022/12/02 04:15:36;;;;;;;44.67;15.80;;;4.70;86.30;;;;;;9183649;19;20018;-66
2022/12/02 04:18:40;;;;;;;;;;;4.80;86.30;;;;;;9178103;19;20018;-67
2022/12/02 04:21:43;;;;;;;35.70;14.18;;;4.70;86.30;;;;;;9181311;19;19926;-66
2022/12/02 04:24:47;;;;;;;39.97;14.32;;;4.70;86.80;;;;;;9181804;19;20573;-66
2022/12/02 04:27:54;;;;;;;44.28;14.50;;;4.70;86.20;;;;;;9181716;19;20010;-68
2022/12/02 04:30:58;;;;;;;46.45;15.60;;;4.70;86.20;;;;;;9182192;19;20011;-68
2022/12/02 04:34:02;;;;;;;41.15;14.75;;;4.70;86.30;;;;;;9184024;19;20021;-67
2022/12/02 04:37:06;;;;;;;38.15;14.45;;;4.70;86.30;;;;;;9183029;19;20026;-66
2022/12/02 04:40:10;;;;;;;38.38;15.75;;;4.70;86.40;;;;;;9180550;19;20472;-66
2022/12/02 04:43:16;;;;;;;36.35;13.85;;;4.70;86.40;;;;;;9182875;19;20015;-68
2022/12/02 04:46:20;;;;;;;35.85;14.40;;;4.70;86.40;;;;;;9180392;19;20500;-66
2022/12/02 04:49:26;;;;;;;32.35;14.02;;;4.70;86.30;;;;;;9180714;19;20014;-66
2022/12/02 04:52:29;;;;;;;36.03;13.70;;;4.70;86.40;;;;;;9178973;19;20047;-69
2022/12/02 04:55:33;;;;;;;37.95;14.00;;;4.70;86.30;;;;;;9181012;19;20478;-66
2022/12/02 04:58:39;;;;;;;49.28;14.75;;;4.60;86.20;;;;;;9182391;19;20523;-66
2022/12/02 05:01:43;;;;;;;36.92;14.52;;;4.60;86.20;;;;;;9178433;19;20007;-66
2022/12/02 05:04:47;;;;;;;39.50;15.13;;;4.60;86.30;;;;;;9180328;19;20465;-67
2022/12/02 05:07:51;;;;;;;42.67;14.38;;;4.60;86.30;;;;;;9181506;19;20024;-67
2022/12/02 05:10:54;;;;;;;;;;;4.50;86.30;;;;;;9183017;19;20031;-67
2022/12/02 05:14:00;;;;;;;48.85;16.05;;;4.50;86.30;;;;;;9182301;19;19918;-68
2022/12/02 05:17:04;;;;;;;50.47;16.98;;;4.50;86.30;;;;;;9180028;19;20022;-67
2022/12/02 05:20:09;;;;;;;44.88;16.75;;;4.50;86.30;;;;;;9175589;19;20022;-66
2022/12/02 05:23:13;;;;;;;50.92;16.75;;;4.40;86.30;;;;;;9179761;19;20010;-66
2022/12/02 05:26:17;;;;;;;48.55;16.92;;;4.40;86.30;;;;;;9181115;19;20013;-66
2022/12/02 05:29:22;;;;;;;;;;;4.40;86.40;;;;;;9182780;19;20013;-66
2022/12/02 05:32:26;;;;;;;56.78;18.40;;;4.40;86.50;;;;;;9181742;19;19978;-66
2022/12/02 05:35:30;;;;;;;52.63;17.98;;;4.40;86.40;;;;;;9181697;19;20436;-68
2022/12/02 05:38:33;;;;;;;61.80;18.75;;;4.40;86.50;;;;;;9179801;19;20467;-67
2022/12/02 05:41:37;;;;;;;57.33;18.08;;;4.30;86.40;;;;;;9176820;19;20438;-67
2022/12/02 05:44:43;;;;;;;69.70;19.30;;;4.30;86.40;;;;;;9181600;19;20018;-68
2022/12/02 05:47:50;;;;;;;60.72;18.80;;;4.30;86.40;;;;;;9180278;19;20018;-67
2022/12/02 05:50:54;;;;;;;53.90;19.73;;;4.30;86.50;;;;;;9179300;19;20018;-67
2022/12/02 05:53:58;;;;;;;48.92;17.85;;;4.30;86.50;;;;;;9179247;19;20014;-67
2022/12/02 05:57:03;;;;;;;;;;;4.30;86.50;;;;;;9181323;19;20015;-66
2022/12/02 06:00:17;;;;;;;61.10;17.67;;;4.30;86.50;;;;;;9179368;19;19927;-66
2022/12/02 06:03:22;;;;;;;59.20;19.58;;;4.30;86.40;;;;;;9179427;19;20014;-67
2022/12/02 06:06:31;;;;;;;63.58;19.73;;;4.30;86.40;;;;;;9175791;19;20356;-66
2022/12/02 06:09:35;;;;;;;58.05;20.05;;;4.30;86.40;;;;;;9177154;19;20025;-66
2022/12/02 06:12:40;;;;;;;72.43;20.45;;;4.30;86.50;;;;;;9178208;19;20027;-67
2022/12/02 06:15:46;;;;;;;;;;;4.30;86.40;;;;;;9178838;19;20019;-67
2022/12/02 06:18:50;;;;;;;68.15;18.90;;;4.30;86.50;;;;;;9173516;19;19927;-67
2022/12/02 06:21:57;;;;;;;60.13;20.63;;;4.20;86.40;;;;;;9176011;19;20371;-67
2022/12/02 06:25:03;;;;;;;58.63;19.92;;;4.20;86.40;;;;;;9178361;19;20047;-68
2022/12/02 06:28:17;;;;;;;63.58;19.15;;;4.20;86.40;;;;;;9179316;19;20022;-67
2022/12/02 06:31:27;;;;;;;65.85;18.70;;;4.20;86.50;;;;;;9177169;19;20017;-68
2022/12/02 06:34:38;;;;;;;60.20;19.35;;;4.20;86.50;;;;;;9172800;19;20019;-68
2022/12/02 06:37:42;;;;;;;59.58;19.00;;;4.10;86.60;;;;;;9164945;19;20018;-67
2022/12/02 06:40:46;;;;;;;57.70;18.65;;;4.10;86.60;;;;;;9165754;19;20515;-67
2022/12/02 06:47:45;;;;;;;63.67;20.42;;;4.10;86.60;;;;;;9167847;19;20803;-67
2022/12/02 06:50:51;;;;;;;64.20;18.83;;;4.10;86.50;;;;;;9162817;19;20018;-66
2022/12/02 06:53:54;;;;;;;60.33;20.38;;;4.10;86.50;;;;;;9166222;19;20018;-68
2022/12/02 06:57:00;;;;;;;64.05;20.88;;;4.10;86.50;;;;;;9166564;19;20042;-67
2022/12/02 07:00:11;;;;;;;58.28;20.88;;;4.20;86.60;;;;;;9165232;19;20329;-68
2022/12/02 07:03:46;;;;;;;58.50;20.08;;;4.20;86.50;;;;;;9168185;19;20019;-68
2022/12/02 07:06:57;;;;;;;60.58;20.67;;;4.10;86.60;;;;;;9170754;19;21161;-68
2022/12/02 07:10:03;;;;;;;65.25;19.80;;;4.10;86.50;;;;;;9171033;19;20408;-66
2022/12/02 07:13:14;;;;;;;62.75;21.52;;;4.10;86.60;;;;;;9169881;19;20018;-68
2022/12/02 07:16:35;;;;;;;58.30;19.05;;;4.10;86.60;;;;;;9172080;19;20024;-66
2022/12/02 07:19:43;;;;;;;65.97;20.63;;;4.10;86.50;;;;;;9171832;19;20010;-66
2022/12/02 07:22:50;;;;;;;62.47;21.05;;;4.10;86.50;;;;;;9181462;19;20021;-66
2022/12/02 07:25:55;;;;;;;61.47;22.02;;;4.10;86.50;;;;;;9184203;19;20011;-67
2022/12/02 07:29:01;;;;;;;60.35;21.58;;;4.10;86.50;;;;;;9185546;19;20479;-66
2022/12/02 07:32:19;;;;;;;68.40;20.88;;;4.10;86.50;;;;;;9179897;19;20014;-67
2022/12/02 07:35:23;;;;;;;63.08;19.23;;;4.00;86.50;;;;;;9178837;19;20387;-68
2022/12/02 07:38:29;;;;;;;70.43;21.20;;;4.00;86.50;;;;;;9178017;19;20014;-68
2022/12/02 07:41:53;;;;;;;69.25;20.27;;;4.00;86.50;;;;;;9178047;19;20471;-67
2022/12/02 07:44:56;;;;;;;63.83;18.95;;;4.00;86.50;;;;;;9177744;19;20031;-66
2022/12/02 07:48:00;;;;;;;;;;;4.00;86.50;;;;;;9184839;19;20082;-66
2022/12/02 07:51:04;;;;;;;56.97;19.52;;;4.00;86.60;;;;;;9182495;19;19922;-66
2022/12/02 07:54:09;;;;;;;61.78;20.52;;;4.00;86.50;;;;;;9183134;19;20014;-67
2022/12/02 07:57:13;;;;;;;61.65;19.33;;;4.00;86.50;;;;;;9182392;19;20030;-69
2022/12/02 08:00:18;;;;;;;55.42;19.75;;;4.00;86.50;;;;;;9181597;19;20389;-66
2022/12/02 08:03:22;;;;;;;63.63;20.20;;;4.00;86.50;;;;;;9184242;19;20015;-67
2022/12/02 08:06:26;;;;;;;63.50;19.65;;;4.00;86.40;;;;;;9183466;19;20014;-67
2022/12/02 08:09:31;;;;;;;;;;;4.00;86.50;;;;;;9185393;19;20082;-67
2022/12/02 08:12:35;;;;;;;59.35;18.25;;;4.00;86.50;;;;;;9184047;19;19915;-67
2022/12/02 08:15:39;;;;;;;64.15;19.25;;;4.00;86.50;;;;;;9182467;19;20408;-67
2022/12/02 08:18:43;;;;;;;61.47;17.27;;;4.00;86.50;;;;;;9177834;19;20018;-66
2022/12/02 08:21:46;;;;;;;59.78;19.02;;;4.00;86.50;;;;;;9180249;19;20023;-69
2022/12/02 08:24:54;;;;;;;57.13;16.92;;;4.00;86.50;;;;;;9181885;19;20120;-68
2022/12/02 08:27:58;;;;;;;54.72;16.85;;;4.00;86.40;;;;;;9182562;19;20019;-67
2022/12/02 08:31:01;;;;;;;64.13;18.10;;;4.00;86.40;;;;;;9182173;19;20033;-66
2022/12/02 08:34:05;;;;;;;;;;;4.00;86.40;;;;;;9182204;19;20018;-66
2022/12/02 08:37:11;;;;;;;61.03;16.83;;;4.00;86.40;;;;;;9181564;19;19947;-67
2022/12/02 08:40:17;;;;;;;58.30;16.90;;;4.00;86.40;;;;;;9183508;19;20463;-66
2022/12/02 08:43:20;;;;;;;58.67;18.25;;;4.00;86.40;;;;;;9180160;19;20037;-67
2022/12/02 08:46:24;;;;;;;66.32;18.08;;;4.00;86.40;;;;;;9177750;19;20023;-67
2022/12/02 08:49:28;;;;;;;;;;;4.00;86.40;;;;;;9179950;19;20035;-67
2022/12/02 08:52:31;;;;;;;53.85;17.23;;;4.00;86.40;;;;;;9172174;19;19914;-67
2022/12/02 08:55:37;;;;;;;;;;;4.00;86.40;;;;;;9183097;19;20007;-66
2022/12/02 08:58:41;;;;;;;51.78;16.30;;;4.00;86.40;;;;;;9183205;19;20881;-66
2022/12/02 09:01:44;;;;;;;;;;;4.00;86.30;;;;;;9178934;19;20035;-66
2022/12/02 09:04:48;;;;;;;52.08;16.20;;;4.00;86.30;;;;;;9181810;19;19947;-67
2022/12/02 09:07:53;;;;;;;61.13;17.98;;;4.00;86.30;;;;;;9179155;19;20589;-66
2022/12/02 09:11:01;;;;;;;64.00;19.30;;;4.00;86.40;;;;;;9178710;19;20800;-66
2022/12/02 09:14:05;;;;;;;64.75;19.88;;;4.00;86.40;;;;;;9177374;19;20055;-67
2022/12/02 09:17:08;;;;;;;69.28;19.85;;;3.90;86.30;;;;;;9175791;19;20470;-69
2022/12/02 09:20:13;;;;;;;;;;;3.90;86.30;;;;;;9173813;19;20037;-66
2022/12/02 09:23:17;;;;;;;;;;;3.90;86.30;;;;;;9179893;19;19919;-66
2022/12/02 09:26:22;;;;;;;70.65;19.45;;;3.90;86.30;;;;;;9179654;19;19938;-68
2022/12/02 09:29:26;;;;;;;64.93;19.10;;;3.90;86.30;;;;;;9180043;19;20455;-67
2022/12/02 09:32:30;;;;;;;72.90;19.17;;;3.90;86.40;;;;;;9179723;19;20038;-67
2022/12/02 09:35:33;;;;;;;68.90;18.13;;;4.00;86.40;;;;;;9178022;19;20011;-66
2022/12/02 09:38:38;;;;;;;62.78;19.80;;;3.90;86.40;;;;;;9178645;19;20030;-67
2022/12/02 09:41:44;;;;;;;68.60;19.35;;;4.00;86.40;;;;;;9177212;19;20018;-68
2022/12/02 09:44:49;;;;;;;60.30;18.50;;;3.90;86.30;;;;;;9179107;19;20081;-66
2022/12/02 09:47:55;;;;;;;61.63;17.08;;;3.90;86.30;;;;;;9179826;19;20055;-66
2022/12/02 09:51:00;;;;;;;51.65;17.05;;;4.00;86.40;;;;;;9179702;19;20018;-66
2022/12/02 09:54:04;;;;;;;59.45;16.55;;;3.90;86.30;;;;;;9179080;19;20090;-67
2022/12/02 09:57:13;;;;;;;58.50;16.45;;;4.00;86.30;;;;;;9180553;19;20081;-66
2022/12/02 10:00:20;;;;;;;53.80;17.58;;;3.90;86.20;;;;;;9179210;19;20030;-66
2022/12/02 10:03:27;;;;;;;59.70;18.23;;;3.90;86.20;;;;;;9180542;19;20047;-66
2022/12/02 10:06:31;;;;;;;53.60;15.90;;;4.00;86.30;;;;;;9180784;19;20021;-66
2022/12/02 10:09:35;;;;;;;54.25;16.10;;;4.00;86.30;;;;;;9178394;19;20015;-66
2022/12/02 10:12:41;;;;;;;50.53;16.08;;;4.00;86.20;;;;;;9180723;19;20493;-68
2022/12/02 10:15:46;;;;;;;40.10;12.00;;;4.00;86.30;;;;;;9178155;19;20018;-66
2022/12/02 10:18:51;;;;;;;37.92;12.93;;;4.00;86.20;;;;;;9175389;19;20022;-69
2022/12/02 10:21:54;;;;;;;40.30;11.60;;;4.00;86.20;;;;;;9174616;19;20010;-66
2022/12/02 10:25:00;;;;;;;39.03;11.85;;;4.00;86.20;;;;;;9175186;19;20018;-66
2022/12/02 10:28:18;;;;;;;39.00;12.45;;;3.90;86.20;;;;;;9176762;19;20026;-66
2022/12/02 10:31:23;;;;;;;34.67;12.60;;;3.90;86.20;;;;;;9179596;19;20491;-67
2022/12/02 10:34:28;;;;;;;34.42;11.95;;;3.90;86.20;;;;;;9179639;19;20017;-67
2022/12/02 10:37:35;;;;;;;35.78;11.68;;;3.90;86.20;;;;;;9179391;19;20018;-66
2022/12/02 10:40:39;;;;;;;29.90;11.30;;;3.90;86.20;;;;;;9176129;19;20368;-67
2022/12/02 10:43:46;;;;;;;38.35;10.90;;;3.90;86.30;;;;;;9173271;19;20010;-68
2022/12/02 10:46:50;;;;;;;40.55;10.88;;;3.90;86.20;;;;;;9173640;19;20028;-69
2022/12/02 10:49:55;;;;;;;35.97;9.90;;;3.90;86.20;;;;;;9173128;19;20025;-68
2022/12/02 10:53:01;;;;;;;26.27;8.82;;;3.90;86.10;;;;;;9170043;19;20054;-67
2022/12/02 10:56:05;;;;;;;26.88;8.35;;;3.90;86.10;;;;;;9176253;19;20051;-67
2022/12/02 10:59:15;;;;;;;31.33;10.05;;;3.80;86.20;;;;;;9181558;19;20069;-67
2022/12/02 11:02:23;;;;;;;26.70;8.82;;;3.80;86.10;;;;;;9178602;19;20035;-67
2022/12/02 11:05:30;;;;;;;28.48;10.43;;;3.80;86.20;;;;;;9181075;19;20021;-67
2022/12/02 11:08:33;;;;;;;26.98;8.52;;;3.80;86.20;;;;;;9181976;19;20019;-67
2022/12/02 11:11:38;;;;;;;;;;;3.80;86.30;;;;;;9183047;19;20490;-66
2022/12/02 11:14:56;;;;;;;;;;;3.80;86.20;;;;;;9184846;19;19921;-67
2022/12/02 11:18:00;;;;;;;34.53;9.77;;;3.80;86.20;;;;;;9185843;19;19934;-67
2022/12/02 11:21:34;;;;;;;27.95;9.65;;;3.80;86.10;;;;;;9177462;19;20081;-66
2022/12/02 11:24:38;;;;;;;29.60;9.95;;;3.70;86.20;;;;;;9183738;19;20027;-67
2022/12/02 11:28:14;;;;;;;27.77;9.38;;;3.70;86.20;;;;;;9184984;19;20007;-67
2022/12/02 11:31:25;;;;;;;30.42;9.52;;;3.70;86.20;;;;;;9182720;19;20014;-67
2022/12/02 11:34:42;;;;;;;35.80;12.18;;;3.70;86.30;;;;;;9185627;19;20463;-68
2022/12/02 11:38:21;;;;;;;29.48;10.32;;;3.70;86.30;;;;;;9184738;19;20018;-66
2022/12/02 11:41:26;;;;;;;37.15;11.77;;;3.70;86.30;;;;;;9184117;19;20486;-66
2022/12/02 11:44:33;;;;;;;32.45;10.85;;;3.70;86.30;;;;;;9182496;19;20026;-66
2022/12/02 11:47:40;;;;;;;38.88;12.60;;;3.70;86.20;;;;;;9185153;19;20018;-67
2022/12/02 11:50:44;;;;;;;32.13;13.90;;;3.70;86.30;;;;;;9184075;19;20026;-66
2022/12/02 11:53:52;;;;;;;40.20;14.20;;;3.70;86.20;;;;;;9182168;19;20011;-67
2022/12/02 11:56:57;;;;;;;32.88;13.30;;;3.70;86.20;;;;;;9184324;19;20007;-66
2022/12/02 12:00:02;;;;;;;39.33;15.35;;;3.70;86.20;;;;;;9185147;19;20089;-66
2022/12/02 12:03:19;;;;;;;44.13;15.88;;;3.70;86.20;;;;;;9180843;19;20038;-68
2022/12/02 12:06:26;;;;;;;40.83;15.77;;;3.70;86.20;;;;;;9181495;19;20011;-68
2022/12/02 12:09:31;;;;;;;39.08;14.25;;;3.70;86.10;;;;;;9184521;19;20014;-66
2022/12/02 12:12:35;;;;;;;39.50;15.40;;;3.70;86.20;;;;;;9183473;19;20074;-66
2022/12/02 12:15:53;;;;;;;42.65;17.70;;;3.70;86.30;;;;;;9182913;19;20019;-67
2022/12/02 12:18:58;;;;;;;54.55;18.67;;;3.70;86.20;;;;;;9179254;19;20014;-66
2022/12/02 12:22:26;;;;;;;47.53;17.92;;;3.70;86.10;;;;;;9179910;19;20094;-67
2022/12/02 12:25:42;;;;;;;53.70;18.05;;;3.70;86.10;;;;;;9183732;19;20090;-66
2022/12/02 12:28:45;;;;;;;52.05;20.08;;;3.60;86.10;;;;;;9181552;19;20014;-66
2022/12/02 12:31:49;;;;;;;56.92;18.42;;;3.60;86.10;;;;;;9168479;19;20035;-67
2022/12/02 12:34:56;;;;;;;48.47;17.95;;;3.60;86.10;;;;;;9172258;19;20018;-68
2022/12/02 12:38:00;;;;;;;57.10;20.35;;;3.60;86.20;;;;;;9170283;19;20027;-66
2022/12/02 12:41:03;;;;;;;65.05;23.40;;;3.60;86.20;;;;;;9172160;19;20526;-68
2022/12/02 12:44:07;;;;;;;82.55;25.20;;;3.60;86.20;;;;;;9171929;19;20471;-66
2022/12/02 12:47:11;;;;;;;71.13;23.65;;;3.60;86.20;;;;;;9171124;19;20018;-67
2022/12/02 12:50:17;;;;;;;;;;;3.60;86.20;;;;;;9174547;19;20014;-68
2022/12/02 12:53:20;;;;;;;71.28;22.83;;;3.60;86.20;;;;;;9166918;19;20459;-69
2022/12/02 12:56:25;;;;;;;72.43;24.83;;;3.50;86.20;;;;;;9169894;19;20019;-68
2022/12/02 12:59:28;;;;;;;;;;;3.50;86.20;;;;;;9175492;19;20397;-65
2022/12/02 13:02:32;;;;;;;73.15;25.63;;;3.50;86.30;;;;;;9173880;19;20336;-67
2022/12/02 13:05:38;;;;;;;;;;;3.50;86.30;;;;;;9181190;19;20018;-67
2022/12/02 13:08:41;;;;;;;76.28;25.80;;;3.60;86.30;;;;;;9178796;19;19934;-70
2022/12/02 13:11:45;;;;;;;;;;;3.60;86.20;;;;;;9177697;19;20022;-67
2022/12/02 13:14:49;;;;;;;92.93;29.80;;;3.50;86.20;;;;;;9177851;19;19934;-66
2022/12/02 13:17:53;;;;;;;81.18;28.75;;;3.60;86.20;;;;;;9178462;19;20102;-67
2022/12/02 13:20:58;;;;;;;;;;;3.50;86.20;;;;;;9170127;19;20006;-66
2022/12/02 13:24:03;;;;;;;93.15;27.92;;;3.50;86.30;;;;;;9181408;19;19972;-66
2022/12/02 13:27:06;;;;;;;81.78;30.25;;;3.50;86.30;;;;;;9174338;19;20051;-66
2022/12/02 13:30:12;;;;;;;;;;;3.50;86.30;;;;;;9178499;19;20022;-65
2022/12/02 13:33:16;;;;;;;83.05;29.77;;;3.50;86.40;;;;;;9176990;19;19929;-68
2022/12/02 13:36:22;;;;;;;91.47;29.48;;;3.50;86.30;;;;;;9178244;19;20014;-64
2022/12/02 13:39:25;;;;;;;87.93;31.25;;;3.50;86.30;;;;;;9176855;19;20022;-65
2022/12/02 13:42:29;;;;;;;;;;;3.50;86.30;;;;;;9172151;19;20700;-67
2022/12/02 13:45:33;;;;;;;94.65;31.58;;;3.50;86.30;;;;;;9165821;19;19923;-67
2022/12/02 13:48:36;;;;;;;90.35;31.73;;;3.60;86.30;;;;;;9170619;19;20031;-65
2022/12/02 13:51:42;;;;;;;;;;;3.60;86.30;;;;;;9176825;19;20018;-65
2022/12/02 13:54:45;;;;;;;91.78;31.45;;;3.50;86.20;;;;;;9181391;19;19915;-67
2022/12/02 13:57:49;;;;;;;90.45;31.30;;;3.60;86.20;;;;;;9171738;19;20512;-69
2022/12/02 14:00:53;;;;;;;90.47;31.27;;;3.50;86.20;;;;;;9170105;19;20022;-66
2022/12/02 14:03:57;;;;;;;108.40;32.67;;;3.60;86.20;;;;;;9170103;19;20022;-67
2022/12/02 14:07:02;;;;;;;;;;;3.60;86.20;;;;;;9170919;19;20034;-66
2022/12/02 14:10:07;;;;;;;88.35;31.42;;;3.60;86.30;;;;;;9171119;19;20380;-67
2022/12/02 14:13:11;;;;;;;85.90;31.23;;;3.60;86.20;;;;;;9173519;19;20441;-68
2022/12/02 14:16:24;;;;;;;86.20;30.95;;;3.60;86.20;;;;;;9174772;19;20014;-66
2022/12/02 14:19:27;;;;;;;;;;;3.60;86.30;;;;;;9168597;19;20034;-70
2022/12/02 14:22:33;;;;;;;81.45;30.80;;;3.60;86.30;;;;;;9168369;19;19939;-67
2022/12/02 14:25:37;;;;;;;84.47;30.75;;;3.60;86.10;;;;;;9172739;19;20014;-67
2022/12/02 14:28:40;;;;;;;92.57;33.75;;;3.60;86.20;;;;;;9167436;19;20019;-68
2022/12/02 14:31:44;;;;;;;85.85;30.40;;;3.60;86.20;;;;;;9167349;19;20503;-67
2022/12/02 14:34:48;;;;;;;90.03;32.50;;;3.60;86.20;;;;;;9165432;19;20014;-67
2022/12/02 14:37:54;;;;;;;86.28;31.13;;;3.60;86.20;;;;;;9163538;19;20041;-66
2022/12/02 14:41:00;;;;;;;83.03;31.45;;;3.60;86.30;;;;;;9160358;19;20402;-70
2022/12/02 14:44:03;;;;;;;79.68;29.38;;;3.60;86.20;;;;;;9159690;19;20529;-69
2022/12/02 14:47:07;;;;;;;80.28;31.00;;;3.60;86.10;;;;;;9156599;19;20018;-67
2022/12/02 14:50:11;;;;;;;83.93;31.60;;;3.60;86.10;;;;;;9165850;19;20022;-69
2022/12/02 14:53:17;;;;;;;81.97;32.22;;;3.60;86.20;;;;;;9163196;19;20156;-66
2022/12/02 14:56:21;;;;;;;79.68;28.67;;;3.70;86.10;;;;;;9166533;19;20035;-69
2022/12/02 14:59:25;;;;;;;77.70;30.63;;;3.70;86.20;;;;;;9161167;19;20035;-66
2022/12/02 15:02:29;;;;;;;;;;;3.70;86.10;;;;;;9162837;19;20042;-68
2022/12/02 15:05:32;;;;;;;86.18;29.92;;;3.70;86.10;;;;;;9158997;19;19950;-66
2022/12/02 15:08:38;;;;;;;77.60;29.77;;;3.70;86.10;;;;;;9163548;19;20760;-66
2022/12/02 15:11:42;;;;;;;75.53;28.60;;;3.70;86.10;;;;;;9161201;19;20031;-67
2022/12/02 15:14:45;;;;;;;81.32;29.92;;;3.70;86.10;;;;;;9167637;19;20938;-67
2022/12/02 15:17:49;;;;;;;79.25;28.38;;;3.70;86.10;;;;;;9157400;19;20839;-66
2022/12/02 15:20:53;;;;;;;75.68;29.80;;;3.70;86.10;;;;;;9161829;19;20022;-66
2022/12/02 15:23:59;;;;;;;71.35;28.27;;;3.70;86.00;;;;;;9169945;19;20450;-66
2022/12/02 15:27:02;;;;;;;78.43;28.10;;;3.70;86.10;;;;;;9161436;19;20078;-66
2022/12/02 15:30:06;;;;;;;;;;;3.70;86.00;;;;;;9160726;19;20011;-69
2022/12/02 15:33:10;;;;;;;74.63;27.13;;;3.70;86.00;;;;;;9163945;19;19923;-66
2022/12/02 15:36:14;;;;;;;72.43;28.63;;;3.70;86.00;;;;;;9160868;19;20049;-67
2022/12/02 15:39:20;;;;;;;67.97;26.70;;;3.70;86.00;;;;;;9162986;19;20019;-70
2022/12/02 15:42:23;;;;;;;65.88;26.73;;;3.70;86.00;;;;;;9162268;19;20018;-67
2022/12/02 15:45:27;;;;;;;69.03;25.95;;;3.70;86.00;;;;;;9171950;19;20502;-65
2022/12/02 15:48:31;;;;;;;65.88;26.52;;;3.70;85.90;;;;;;9170082;19;20043;-68
2022/12/02 15:51:34;;;;;;;;;;;3.70;85.90;;;;;;9174164;19;20055;-66
2022/12/02 15:54:40;;;;;;;66.32;26.58;;;3.70;85.90;;;;;;9171958;19;19922;-66
2022/12/02 15:57:44;;;;;;;65.10;26.58;;;3.70;85.80;;;;;;9177225;19;20090;-66
2022/12/02 16:00:48;;;;;;;62.78;24.98;;;3.70;85.90;;;;;;9174323;19;20029;-67
2022/12/02 16:03:51;;;;;;;;;;;3.70;85.90;;;;;;9169176;19;20938;-67
2022/12/02 16:06:55;;;;;;;46.35;17.55;;;3.70;85.90;;;;;;9170934;19;19960;-65
2022/12/02 16:10:00;;;;;;;64.00;24.67;;;3.70;85.80;;;;;;9178077;19;20837;-67
2022/12/02 16:13:05;;;;;;;61.20;24.00;;;3.70;85.80;;;;;;9170691;19;20031;-66
2022/12/02 16:16:09;;;;;;;;;;;3.70;85.80;;;;;;9174898;19;20082;-66
2022/12/02 16:19:13;;;;;;;67.18;26.40;;;3.70;85.90;;;;;;9170147;19;19929;-66